sensor_id;sensor_type;location;lat;lon;timestamp;pressure;altitude;pressure_sealevel;temperature;humidity
64095;BME280;50353;51.420;5.682;2023-07-08T00:00:29;101356.25;;;20.55;64.00
64095;BME280;50353;51.420;5.682;2023-07-08T00:02:55;101346.81;;;20.21;63.81
64095;BME280;50353;51.420;5.682;2023-07-08T00:05:21;101343.09;;;20.62;62.48
64095;BME280;50353;51.420;5.682;2023-07-08T00:07:48;101335.47;;;20.47;62.84
64095;BME280;50353;51.420;5.682;2023-07-08T00:12:39;101334.19;;;20.51;62.54
64095;BME280;50353;51.420;5.682;2023-07-08T00:15:05;101332.72;;;20.67;61.75
64095;BME280;50353;51.420;5.682;2023-07-08T00:17:30;101335.56;;;20.75;60.84
64095;BME280;50353;51.420;5.682;2023-07-08T00:19:56;101329.50;;;20.73;61.70
64095;BME280;50353;51.420;5.682;2023-07-08T00:22:21;101338.25;;;20.65;61.70
64095;BME280;50353;51.420;5.682;2023-07-08T00:24:49;101334.78;;;20.45;61.27
64095;BME280;50353;51.420;5.682;2023-07-08T00:27:15;101327.72;;;20.44;61.18
64095;BME280;50353;51.420;5.682;2023-07-08T00:29:40;101329.34;;;19.98;63.29
64095;BME280;50353;51.420;5.682;2023-07-08T00:32:14;101327.72;;;19.66;65.17
64095;BME280;50353;51.420;5.682;2023-07-08T00:34:39;101325.78;;;20.26;63.31
64095;BME280;50353;51.420;5.682;2023-07-08T00:37:05;101319.69;;;20.24;62.94
64095;BME280;50353;51.420;5.682;2023-07-08T00:39:31;101320.28;;;20.18;63.22
64095;BME280;50353;51.420;5.682;2023-07-08T00:41:58;101329.06;;;20.01;63.28
64095;BME280;50353;51.420;5.682;2023-07-08T00:44:25;101322.38;;;20.24;62.84
64095;BME280;50353;51.420;5.682;2023-07-08T00:47:04;101324.50;;;20.21;62.76
64095;BME280;50353;51.420;5.682;2023-07-08T00:49:49;101315.19;;;20.25;62.70
64095;BME280;50353;51.420;5.682;2023-07-08T00:52:24;101313.94;;;20.19;62.35
64095;BME280;50353;51.420;5.682;2023-07-08T00:55:12;101301.34;;;20.20;62.48
64095;BME280;50353;51.420;5.682;2023-07-08T00:57:39;101305.25;;;20.45;61.14
64095;BME280;50353;51.420;5.682;2023-07-08T01:00:08;101316.16;;;20.81;59.61
64095;BME280;50353;51.420;5.682;2023-07-08T01:02:40;101313.84;;;20.49;60.84
64095;BME280;50353;51.420;5.682;2023-07-08T01:05:14;101308.69;;;20.27;61.57
64095;BME280;50353;51.420;5.682;2023-07-08T01:07:42;101311.81;;;20.70;59.78
64095;BME280;50353;51.420;5.682;2023-07-08T01:10:19;101305.59;;;20.60;60.39
64095;BME280;50353;51.420;5.682;2023-07-08T01:12:48;101306.56;;;20.21;62.08
64095;BME280;50353;51.420;5.682;2023-07-08T01:15:16;101310.25;;;20.01;63.66
64095;BME280;50353;51.420;5.682;2023-07-08T01:17:43;101301.13;;;20.51;62.10
64095;BME280;50353;51.420;5.682;2023-07-08T01:20:09;101305.22;;;20.55;62.53
64095;BME280;50353;51.420;5.682;2023-07-08T01:22:41;101319.03;;;20.60;62.66
64095;BME280;50353;51.420;5.682;2023-07-08T01:25:08;101310.25;;;20.68;61.39
64095;BME280;50353;51.420;5.682;2023-07-08T01:27:36;101311.75;;;20.42;60.83
64095;BME280;50353;51.420;5.682;2023-07-08T01:30:04;101304.66;;;20.51;62.10
64095;BME280;50353;51.420;5.682;2023-07-08T01:32:31;101308.06;;;20.53;60.57
64095;BME280;50353;51.420;5.682;2023-07-08T01:35:00;101305.47;;;20.62;60.66
64095;BME280;50353;51.420;5.682;2023-07-08T01:37:41;101306.13;;;20.16;61.50
64095;BME280;50353;51.420;5.682;2023-07-08T01:40:33;101303.63;;;20.62;60.12
64095;BME280;50353;51.420;5.682;2023-07-08T01:42:59;101295.97;;;20.67;60.91
64095;BME280;50353;51.420;5.682;2023-07-08T01:45:27;101285.53;;;20.54;60.41
64095;BME280;50353;51.420;5.682;2023-07-08T01:47:58;101291.06;;;20.53;60.17
64095;BME280;50353;51.420;5.682;2023-07-08T01:50:25;101292.72;;;20.64;59.02
64095;BME280;50353;51.420;5.682;2023-07-08T01:52:52;101286.19;;;20.76;59.14
64095;BME280;50353;51.420;5.682;2023-07-08T01:55:23;101287.41;;;20.54;60.04
64095;BME280;50353;51.420;5.682;2023-07-08T01:57:51;101267.88;;;20.52;59.88
64095;BME280;50353;51.420;5.682;2023-07-08T02:00:17;101267.50;;;20.47;60.04
64095;BME280;50353;51.420;5.682;2023-07-08T02:02:43;101275.72;;;20.83;58.93
64095;BME280;50353;51.420;5.682;2023-07-08T02:05:08;101279.28;;;20.73;59.22
64095;BME280;50353;51.420;5.682;2023-07-08T02:07:33;101276.44;;;20.75;59.23
64095;BME280;50353;51.420;5.682;2023-07-08T02:09:58;101274.56;;;20.85;60.52
64095;BME280;50353;51.420;5.682;2023-07-08T02:12:24;101269.41;;;20.74;59.86
64095;BME280;50353;51.420;5.682;2023-07-08T02:14:49;101272.88;;;20.84;58.61
64095;BME280;50353;51.420;5.682;2023-07-08T02:17:14;101266.91;;;20.53;59.85
64095;BME280;50353;51.420;5.682;2023-07-08T02:19:42;101266.38;;;20.49;60.01
64095;BME280;50353;51.420;5.682;2023-07-08T02:22:07;101259.19;;;20.68;59.41
64095;BME280;50353;51.420;5.682;2023-07-08T02:24:32;101257.81;;;20.26;60.99
64095;BME280;50353;51.420;5.682;2023-07-08T02:26:57;101261.53;;;20.15;60.91
64095;BME280;50353;51.420;5.682;2023-07-08T02:29:23;101253.03;;;20.10;61.10
64095;BME280;50353;51.420;5.682;2023-07-08T02:31:48;101249.63;;;20.18;60.54
64095;BME280;50353;51.420;5.682;2023-07-08T02:34:13;101246.69;;;20.11;60.65
64095;BME280;50353;51.420;5.682;2023-07-08T02:36:39;101249.41;;;19.82;62.11
64095;BME280;50353;51.420;5.682;2023-07-08T02:39:04;101245.91;;;19.81;62.31
64095;BME280;50353;51.420;5.682;2023-07-08T02:41:30;101238.66;;;19.91;62.52
64095;BME280;50353;51.420;5.682;2023-07-08T02:43:56;101235.09;;;20.10;61.56
64095;BME280;50353;51.420;5.682;2023-07-08T02:46:21;101243.84;;;20.22;61.04
64095;BME280;50353;51.420;5.682;2023-07-08T02:48:46;101242.59;;;20.07;61.25
64095;BME280;50353;51.420;5.682;2023-07-08T02:51:11;101241.06;;;19.95;61.65
64095;BME280;50353;51.420;5.682;2023-07-08T02:53:37;101239.78;;;19.99;61.17
64095;BME280;50353;51.420;5.682;2023-07-08T02:56:02;101237.81;;;20.01;61.31
64095;BME280;50353;51.420;5.682;2023-07-08T02:58:28;101244.91;;;19.92;61.76
64095;BME280;50353;51.420;5.682;2023-07-08T03:00:54;101246.81;;;20.09;61.45
64095;BME280;50353;51.420;5.682;2023-07-08T03:03:20;101243.06;;;19.92;61.64
64095;BME280;50353;51.420;5.682;2023-07-08T03:08:21;101250.41;;;19.81;62.22
64095;BME280;50353;51.420;5.682;2023-07-08T03:10:55;101249.81;;;19.97;61.73
64095;BME280;50353;51.420;5.682;2023-07-08T03:13:20;101258.28;;;19.72;62.76
64095;BME280;50353;51.420;5.682;2023-07-08T03:15:45;101251.81;;;19.85;62.32
64095;BME280;50353;51.420;5.682;2023-07-08T03:18:11;101265.31;;;19.24;64.86
64095;BME280;50353;51.420;5.682;2023-07-08T03:20:39;101256.16;;;19.47;63.25
64095;BME280;50353;51.420;5.682;2023-07-08T03:23:04;101252.66;;;19.56;63.37
64095;BME280;50353;51.420;5.682;2023-07-08T03:25:30;101257.88;;;19.38;63.30
64095;BME280;50353;51.420;5.682;2023-07-08T03:27:55;101257.75;;;19.69;62.64
64095;BME280;50353;51.420;5.682;2023-07-08T03:30:22;101270.41;;;19.76;62.13
64095;BME280;50353;51.420;5.682;2023-07-08T03:32:47;101272.97;;;19.78;61.79
64095;BME280;50353;51.420;5.682;2023-07-08T03:35:13;101271.28;;;19.77;62.63
64095;BME280;50353;51.420;5.682;2023-07-08T03:37:38;101273.69;;;19.61;64.03
64095;BME280;50353;51.420;5.682;2023-07-08T03:40:04;101271.66;;;19.33;65.85
64095;BME280;50353;51.420;5.682;2023-07-08T03:42:29;101270.00;;;19.42;66.39
64095;BME280;50353;51.420;5.682;2023-07-08T03:44:54;101269.00;;;19.33;65.00
64095;BME280;50353;51.420;5.682;2023-07-08T03:47:20;101270.66;;;19.15;67.34
64095;BME280;50353;51.420;5.682;2023-07-08T03:49:45;101261.78;;;19.14;67.67
64095;BME280;50353;51.420;5.682;2023-07-08T03:52:14;101265.81;;;18.99;67.41
64095;BME280;50353;51.420;5.682;2023-07-08T03:54:41;101269.13;;;19.22;66.01
64095;BME280;50353;51.420;5.682;2023-07-08T03:57:06;101268.13;;;19.13;69.89
64095;BME280;50353;51.420;5.682;2023-07-08T03:59:31;101270.94;;;19.12;68.68
64095;BME280;50353;51.420;5.682;2023-07-08T04:01:57;101276.63;;;18.87;70.51
64095;BME280;50353;51.420;5.682;2023-07-08T04:04:22;101284.06;;;19.05;69.61
64095;BME280;50353;51.420;5.682;2023-07-08T04:06:47;101280.19;;;18.88;70.66
64095;BME280;50353;51.420;5.682;2023-07-08T04:09:13;101280.84;;;18.80;70.13
64095;BME280;50353;51.420;5.682;2023-07-08T04:11:38;101288.25;;;18.67;69.65
64095;BME280;50353;51.420;5.682;2023-07-08T04:14:03;101282.97;;;18.86;71.07
64095;BME280;50353;51.420;5.682;2023-07-08T04:16:35;101277.34;;;18.89;70.55
64095;BME280;50353;51.420;5.682;2023-07-08T04:19:02;101283.25;;;19.24;70.45
64095;BME280;50353;51.420;5.682;2023-07-08T04:21:27;101286.91;;;19.13;70.17
64095;BME280;50353;51.420;5.682;2023-07-08T04:23:55;101281.16;;;19.37;68.24
64095;BME280;50353;51.420;5.682;2023-07-08T04:26:20;101280.16;;;19.48;70.55
64095;BME280;50353;51.420;5.682;2023-07-08T04:28:45;101273.38;;;19.44;68.18
64095;BME280;50353;51.420;5.682;2023-07-08T04:31:11;101270.16;;;19.50;67.05
64095;BME280;50353;51.420;5.682;2023-07-08T04:33:36;101280.19;;;18.98;67.27
64095;BME280;50353;51.420;5.682;2023-07-08T04:36:02;101280.41;;;19.16;68.41
64095;BME280;50353;51.420;5.682;2023-07-08T04:38:28;101279.13;;;18.79;69.51
64095;BME280;50353;51.420;5.682;2023-07-08T04:40:53;101282.13;;;19.27;69.54
64095;BME280;50353;51.420;5.682;2023-07-08T04:43:20;101283.19;;;19.04;69.45
64095;BME280;50353;51.420;5.682;2023-07-08T04:45:49;101274.78;;;19.48;67.19
64095;BME280;50353;51.420;5.682;2023-07-08T04:48:19;101280.16;;;19.38;66.53
64095;BME280;50353;51.420;5.682;2023-07-08T04:50:48;101271.28;;;19.57;66.91
64095;BME280;50353;51.420;5.682;2023-07-08T04:53:14;101275.38;;;19.62;65.66
64095;BME280;50353;51.420;5.682;2023-07-08T04:55:42;101271.13;;;19.59;66.13
64095;BME280;50353;51.420;5.682;2023-07-08T04:58:09;101277.06;;;19.43;65.93
64095;BME280;50353;51.420;5.682;2023-07-08T05:00:34;101280.31;;;19.96;64.81
64095;BME280;50353;51.420;5.682;2023-07-08T05:03:00;101279.50;;;19.85;67.17
64095;BME280;50353;51.420;5.682;2023-07-08T05:05:25;101278.50;;;19.86;66.99
64095;BME280;50353;51.420;5.682;2023-07-08T05:07:51;101279.88;;;19.71;65.70
64095;BME280;50353;51.420;5.682;2023-07-08T05:10:17;101286.38;;;20.17;65.42
64095;BME280;50353;51.420;5.682;2023-07-08T05:12:45;101272.97;;;20.55;63.27
64095;BME280;50353;51.420;5.682;2023-07-08T05:15:10;101279.03;;;20.19;65.36
64095;BME280;50353;51.420;5.682;2023-07-08T05:17:37;101272.06;;;20.26;64.35
64095;BME280;50353;51.420;5.682;2023-07-08T05:20:03;101273.22;;;20.24;64.23
64095;BME280;50353;51.420;5.682;2023-07-08T05:22:29;101277.22;;;20.00;66.18
64095;BME280;50353;51.420;5.682;2023-07-08T05:24:54;101282.44;;;20.02;65.46
64095;BME280;50353;51.420;5.682;2023-07-08T05:27:22;101278.91;;;19.72;67.30
64095;BME280;50353;51.420;5.682;2023-07-08T05:29:48;101276.81;;;19.95;66.23
64095;BME280;50353;51.420;5.682;2023-07-08T05:32:13;101273.69;;;19.90;66.36
64095;BME280;50353;51.420;5.682;2023-07-08T05:34:39;101272.97;;;20.07;65.62
64095;BME280;50353;51.420;5.682;2023-07-08T05:37:04;101272.72;;;19.81;66.26
64095;BME280;50353;51.420;5.682;2023-07-08T05:39:30;101268.34;;;19.80;66.41
64095;BME280;50353;51.420;5.682;2023-07-08T05:41:56;101272.97;;;19.68;67.77
64095;BME280;50353;51.420;5.682;2023-07-08T05:44:21;101275.78;;;19.76;67.81
64095;BME280;50353;51.420;5.682;2023-07-08T05:46:47;101275.81;;;20.06;67.48
64095;BME280;50353;51.420;5.682;2023-07-08T05:49:12;101276.84;;;20.33;66.74
64095;BME280;50353;51.420;5.682;2023-07-08T05:51:38;101278.44;;;20.73;66.38
64095;BME280;50353;51.420;5.682;2023-07-08T05:54:03;101274.31;;;20.79;65.41
64095;BME280;50353;51.420;5.682;2023-07-08T05:56:28;101275.91;;;20.99;65.09
64095;BME280;50353;51.420;5.682;2023-07-08T05:58:56;101271.97;;;21.39;64.78
64095;BME280;50353;51.420;5.682;2023-07-08T06:01:21;101273.59;;;21.50;63.13
64095;BME280;50353;51.420;5.682;2023-07-08T06:03:47;101281.84;;;21.67;62.96
64095;BME280;50353;51.420;5.682;2023-07-08T06:06:12;101285.78;;;21.26;65.21
64095;BME280;50353;51.420;5.682;2023-07-08T06:08:38;101283.09;;;21.26;65.17
64095;BME280;50353;51.420;5.682;2023-07-08T06:11:03;101280.09;;;22.02;61.32
64095;BME280;50353;51.420;5.682;2023-07-08T06:13:28;101290.63;;;22.13;60.99
64095;BME280;50353;51.420;5.682;2023-07-08T06:15:54;101282.78;;;22.02;61.32
64095;BME280;50353;51.420;5.682;2023-07-08T06:18:19;101281.25;;;22.43;59.48
64095;BME280;50353;51.420;5.682;2023-07-08T06:20:54;101279.84;;;22.13;61.50
64095;BME280;50353;51.420;5.682;2023-07-08T06:23:20;101284.66;;;22.01;61.18
64095;BME280;50353;51.420;5.682;2023-07-08T06:25:45;101282.50;;;22.31;60.85
64095;BME280;50353;51.420;5.682;2023-07-08T06:28:10;101275.91;;;22.52;59.50
64095;BME280;50353;51.420;5.682;2023-07-08T06:30:36;101286.44;;;22.37;59.65
64095;BME280;50353;51.420;5.682;2023-07-08T06:33:02;101281.47;;;22.93;57.42
64095;BME280;50353;51.420;5.682;2023-07-08T06:35:28;101282.53;;;23.00;57.46
64095;BME280;50353;51.420;5.682;2023-07-08T06:37:53;101285.66;;;23.30;58.65
64095;BME280;50353;51.420;5.682;2023-07-08T06:42:44;101284.84;;;23.54;54.16
64095;BME280;50353;51.420;5.682;2023-07-08T06:45:10;101295.03;;;23.93;52.22
64095;BME280;50353;51.420;5.682;2023-07-08T06:47:35;101289.41;;;23.87;54.13
64095;BME280;50353;51.420;5.682;2023-07-08T06:50:01;101293.97;;;24.27;52.99
64095;BME280;50353;51.420;5.682;2023-07-08T06:52:27;101286.50;;;24.46;52.62
64095;BME280;50353;51.420;5.682;2023-07-08T06:54:52;101288.19;;;24.95;54.33
64095;BME280;50353;51.420;5.682;2023-07-08T06:57:18;101287.28;;;24.71;52.72
64095;BME280;50353;51.420;5.682;2023-07-08T06:59:43;101294.94;;;24.99;52.90
64095;BME280;50353;51.420;5.682;2023-07-08T07:02:08;101287.91;;;25.21;53.00
64095;BME280;50353;51.420;5.682;2023-07-08T07:04:34;101287.91;;;25.21;52.82
64095;BME280;50353;51.420;5.682;2023-07-08T07:07:00;101284.09;;;25.62;51.46
64095;BME280;50353;51.420;5.682;2023-07-08T07:09:26;101285.19;;;25.53;49.58
64095;BME280;50353;51.420;5.682;2023-07-08T07:11:51;101287.31;;;25.80;49.81
64095;BME280;50353;51.420;5.682;2023-07-08T07:14:16;101291.25;;;26.16;49.45
64095;BME280;50353;51.420;5.682;2023-07-08T07:16:41;101288.38;;;26.32;49.01
64095;BME280;50353;51.420;5.682;2023-07-08T07:19:07;101288.75;;;26.29;50.77
64095;BME280;50353;51.420;5.682;2023-07-08T07:21:32;101283.31;;;26.14;48.66
64095;BME280;50353;51.420;5.682;2023-07-08T07:23:57;101286.63;;;26.40;49.91
64095;BME280;50353;51.420;5.682;2023-07-08T07:26:23;101278.16;;;26.73;47.48
64095;BME280;50353;51.420;5.682;2023-07-08T07:28:48;101278.66;;;26.83;46.19
64095;BME280;50353;51.420;5.682;2023-07-08T07:31:13;101290.88;;;27.09;45.62
64095;BME280;50353;51.420;5.682;2023-07-08T07:33:38;101288.97;;;27.39;45.99
64095;BME280;50353;51.420;5.682;2023-07-08T07:36:04;101284.25;;;27.48;46.89
64095;BME280;50353;51.420;5.682;2023-07-08T07:38:32;101298.16;;;27.88;43.25
64095;BME280;50353;51.420;5.682;2023-07-08T07:40:58;101296.41;;;27.74;45.28
64095;BME280;50353;51.420;5.682;2023-07-08T07:43:25;101304.28;;;27.69;44.44
64095;BME280;50353;51.420;5.682;2023-07-08T07:45:51;101296.41;;;27.52;45.83
64095;BME280;50353;51.420;5.682;2023-07-08T07:48:17;101299.22;;;27.87;43.02
64095;BME280;50353;51.420;5.682;2023-07-08T07:50:47;101297.34;;;27.88;44.15
64095;BME280;50353;51.420;5.682;2023-07-08T07:53:13;101292.59;;;28.18;45.53
64095;BME280;50353;51.420;5.682;2023-07-08T07:55:38;101292.63;;;27.96;46.80
64095;BME280;50353;51.420;5.682;2023-07-08T07:58:04;101299.44;;;27.86;46.89
64095;BME280;50353;51.420;5.682;2023-07-08T08:00:30;101299.78;;;27.54;44.68
64095;BME280;50353;51.420;5.682;2023-07-08T08:02:55;101287.25;;;28.03;43.78
64095;BME280;50353;51.420;5.682;2023-07-08T08:05:21;101287.69;;;28.63;43.36
64095;BME280;50353;51.420;5.682;2023-07-08T08:07:46;101284.94;;;29.12;43.45
64095;BME280;50353;51.420;5.682;2023-07-08T08:10:13;101292.91;;;29.20;43.00
64095;BME280;50353;51.420;5.682;2023-07-08T08:12:38;101290.84;;;28.74;43.99
64095;BME280;50353;51.420;5.682;2023-07-08T08:15:04;101288.78;;;29.38;42.28
64095;BME280;50353;51.420;5.682;2023-07-08T08:17:29;101297.25;;;29.90;43.64
64095;BME280;50353;51.420;5.682;2023-07-08T08:19:54;101304.13;;;29.59;40.98
64095;BME280;50353;51.420;5.682;2023-07-08T08:22:19;101305.03;;;29.93;41.22
64095;BME280;50353;51.420;5.682;2023-07-08T08:24:46;101292.19;;;29.46;44.13
64095;BME280;50353;51.420;5.682;2023-07-08T08:27:11;101294.44;;;29.36;41.69
64095;BME280;50353;51.420;5.682;2023-07-08T08:29:37;101299.72;;;29.51;43.77
64095;BME280;50353;51.420;5.682;2023-07-08T08:32:02;101300.41;;;30.13;41.23
64095;BME280;50353;51.420;5.682;2023-07-08T08:34:28;101301.44;;;30.26;40.27
64095;BME280;50353;51.420;5.682;2023-07-08T08:36:53;101317.97;;;30.51;38.74
64095;BME280;50353;51.420;5.682;2023-07-08T08:39:20;101302.88;;;31.07;40.79
64095;BME280;50353;51.420;5.682;2023-07-08T08:41:46;101311.38;;;30.85;40.54
64095;BME280;50353;51.420;5.682;2023-07-08T08:44:16;101300.72;;;30.71;41.92
64095;BME280;50353;51.420;5.682;2023-07-08T08:46:52;101311.47;;;31.11;41.18
64095;BME280;50353;51.420;5.682;2023-07-08T08:49:26;101317.47;;;30.81;37.00
64095;BME280;50353;51.420;5.682;2023-07-08T08:51:52;101307.19;;;30.83;41.08
64095;BME280;50353;51.420;5.682;2023-07-08T08:54:18;101306.75;;;31.31;38.58
64095;BME280;50353;51.420;5.682;2023-07-08T08:59:44;101312.31;;;31.82;38.26
64095;BME280;50353;51.420;5.682;2023-07-08T09:02:41;101314.75;;;31.65;37.45
64095;BME280;50353;51.420;5.682;2023-07-08T09:05:09;101317.75;;;31.82;36.45
64095;BME280;50353;51.420;5.682;2023-07-08T09:07:44;101321.44;;;31.94;37.30
64095;BME280;50353;51.420;5.682;2023-07-08T09:10:39;101317.72;;;32.14;36.41
64095;BME280;50353;51.420;5.682;2023-07-08T09:13:14;101311.31;;;32.27;34.20
64095;BME280;50353;51.420;5.682;2023-07-08T09:15:42;101315.56;;;32.60;34.01
64095;BME280;50353;51.420;5.682;2023-07-08T09:18:25;101314.66;;;31.78;38.30
64095;BME280;50353;51.420;5.682;2023-07-08T09:20:55;101315.44;;;31.85;38.88
64095;BME280;50353;51.420;5.682;2023-07-08T09:23:32;101306.94;;;31.94;37.91
64095;BME280;50353;51.420;5.682;2023-07-08T09:26:07;101310.06;;;32.85;35.88
64095;BME280;50353;51.420;5.682;2023-07-08T09:28:43;101302.66;;;32.67;38.05
64095;BME280;50353;51.420;5.682;2023-07-08T09:31:28;101301.66;;;31.74;35.98
64095;BME280;50353;51.420;5.682;2023-07-08T09:34:05;101302.13;;;32.14;36.84
64095;BME280;50353;51.420;5.682;2023-07-08T09:36:30;101312.53;;;33.05;34.21
64095;BME280;50353;51.420;5.682;2023-07-08T09:38:56;101307.75;;;33.31;36.35
64095;BME280;50353;51.420;5.682;2023-07-08T09:41:33;101308.94;;;33.65;32.53
64095;BME280;50353;51.420;5.682;2023-07-08T09:44:13;101298.66;;;33.49;34.59
64095;BME280;50353;51.420;5.682;2023-07-08T09:46:39;101296.56;;;33.75;31.29
64095;BME280;50353;51.420;5.682;2023-07-08T09:49:31;101295.75;;;33.86;32.61
64095;BME280;50353;51.420;5.682;2023-07-08T09:51:55;101296.69;;;34.27;32.62
64095;BME280;50353;51.420;5.682;2023-07-08T09:54:22;101293.38;;;34.01;32.94
64095;BME280;50353;51.420;5.682;2023-07-08T09:56:55;101298.25;;;33.88;36.45
64095;BME280;50353;51.420;5.682;2023-07-08T09:59:23;101302.56;;;34.07;31.96
64095;BME280;50353;51.420;5.682;2023-07-08T10:01:51;101297.88;;;33.84;33.78
64095;BME280;50353;51.420;5.682;2023-07-08T10:04:19;101306.28;;;34.36;30.04
64095;BME280;50353;51.420;5.682;2023-07-08T10:06:44;101297.06;;;34.07;32.37
64095;BME280;50353;51.420;5.682;2023-07-08T10:09:14;101295.88;;;34.50;31.57
64095;BME280;50353;51.420;5.682;2023-07-08T10:11:48;101302.84;;;34.82;29.84
64095;BME280;50353;51.420;5.682;2023-07-08T10:14:25;101297.69;;;34.33;32.25
64095;BME280;50353;51.420;5.682;2023-07-08T10:16:51;101299.97;;;35.17;32.66
64095;BME280;50353;51.420;5.682;2023-07-08T10:19:19;101295.47;;;35.11;31.86
64095;BME280;50353;51.420;5.682;2023-07-08T10:27:08;101293.34;;;35.30;30.04
64095;BME280;50353;51.420;5.682;2023-07-08T10:29:49;101292.75;;;35.28;28.99
64095;BME280;50353;51.420;5.682;2023-07-08T10:35:28;101295.91;;;34.91;29.82
64095;BME280;50353;51.420;5.682;2023-07-08T10:38:29;101299.75;;;34.78;35.06
64095;BME280;50353;51.420;5.682;2023-07-08T10:41:09;101302.34;;;34.85;32.23
64095;BME280;50353;51.420;5.682;2023-07-08T10:43:48;101309.50;;;34.33;33.07
64095;BME280;50353;51.420;5.682;2023-07-08T10:46:43;101300.72;;;35.13;30.42
64095;BME280;50353;51.420;5.682;2023-07-08T10:55:09;101309.91;;;34.66;33.83
64095;BME280;50353;51.420;5.682;2023-07-08T10:57:48;101315.38;;;34.90;32.02
64095;BME280;50353;51.420;5.682;2023-07-08T11:00:26;101316.81;;;35.21;32.04
64095;BME280;50353;51.420;5.682;2023-07-08T11:02:59;101317.00;;;35.02;33.25
64095;BME280;50353;51.420;5.682;2023-07-08T11:05:38;101308.06;;;34.95;29.27
64095;BME280;50353;51.420;5.682;2023-07-08T11:08:23;101306.25;;;35.01;29.78
64095;BME280;50353;51.420;5.682;2023-07-08T11:10:56;101296.16;;;35.64;30.52
64095;BME280;50353;51.420;5.682;2023-07-08T11:13:25;101283.44;;;35.00;30.27
64095;BME280;50353;51.420;5.682;2023-07-08T11:16:19;101297.72;;;35.43;30.65
64095;BME280;50353;51.420;5.682;2023-07-08T11:18:48;101301.31;;;34.74;29.52
64095;BME280;50353;51.420;5.682;2023-07-08T11:21:24;101301.38;;;35.49;28.77
64095;BME280;50353;51.420;5.682;2023-07-08T11:26:42;101306.06;;;34.79;29.36
64095;BME280;50353;51.420;5.682;2023-07-08T11:29:19;101295.63;;;35.21;31.24
64095;BME280;50353;51.420;5.682;2023-07-08T11:31:45;101298.75;;;35.25;26.75
64095;BME280;50353;51.420;5.682;2023-07-08T11:34:13;101296.97;;;35.19;27.60
64095;BME280;50353;51.420;5.682;2023-07-08T11:36:41;101296.88;;;34.85;30.96
64095;BME280;50353;51.420;5.682;2023-07-08T11:39:52;101292.06;;;36.01;28.47
64095;BME280;50353;51.420;5.682;2023-07-08T11:42:22;101296.38;;;36.14;34.04
64095;BME280;50353;51.420;5.682;2023-07-08T11:44:51;101292.97;;;35.73;30.25
64095;BME280;50353;51.420;5.682;2023-07-08T11:47:35;101282.72;;;36.02;27.28
64095;BME280;50353;51.420;5.682;2023-07-08T11:50:15;101280.03;;;36.68;26.50
64095;BME280;50353;51.420;5.682;2023-07-08T11:53:03;101286.69;;;36.28;28.69
64095;BME280;50353;51.420;5.682;2023-07-08T11:58:21;101274.00;;;36.71;27.16
64095;BME280;50353;51.420;5.682;2023-07-08T12:03:47;101267.97;;;35.91;31.14
64095;BME280;50353;51.420;5.682;2023-07-08T12:09:15;101270.81;;;36.58;26.23
64095;BME280;50353;51.420;5.682;2023-07-08T12:11:45;101274.41;;;36.36;28.45
64095;BME280;50353;51.420;5.682;2023-07-08T12:14:10;101262.00;;;36.16;29.37
64095;BME280;50353;51.420;5.682;2023-07-08T12:16:36;101260.81;;;35.90;30.09
64095;BME280;50353;51.420;5.682;2023-07-08T12:19:04;101266.94;;;35.29;27.22
64095;BME280;50353;51.420;5.682;2023-07-08T12:21:30;101264.59;;;35.21;27.77
64095;BME280;50353;51.420;5.682;2023-07-08T12:24:03;101256.88;;;36.03;28.48
64095;BME280;50353;51.420;5.682;2023-07-08T12:26:28;101257.75;;;36.26;30.29
64095;BME280;50353;51.420;5.682;2023-07-08T12:28:56;101254.13;;;36.25;28.73
64095;BME280;50353;51.420;5.682;2023-07-08T12:31:22;101250.59;;;36.47;29.29
64095;BME280;50353;51.420;5.682;2023-07-08T12:33:49;101249.47;;;36.92;29.87
64095;BME280;50353;51.420;5.682;2023-07-08T12:36:20;101250.19;;;36.82;26.88
64095;BME280;50353;51.420;5.682;2023-07-08T12:38:48;101248.66;;;36.69;26.75
64095;BME280;50353;51.420;5.682;2023-07-08T12:41:29;101249.13;;;36.61;26.21
64095;BME280;50353;51.420;5.682;2023-07-08T12:43:56;101247.09;;;36.51;28.31
64095;BME280;50353;51.420;5.682;2023-07-08T12:46:22;101253.59;;;36.45;27.29
64095;BME280;50353;51.420;5.682;2023-07-08T12:48:47;101243.75;;;36.49;25.25
64095;BME280;50353;51.420;5.682;2023-07-08T12:51:16;101241.09;;;36.82;27.20
64095;BME280;50353;51.420;5.682;2023-07-08T12:53:42;101238.38;;;36.60;27.21
64095;BME280;50353;51.420;5.682;2023-07-08T12:56:08;101243.63;;;35.49;27.96
64095;BME280;50353;51.420;5.682;2023-07-08T12:58:38;101241.97;;;36.21;30.13
64095;BME280;50353;51.420;5.682;2023-07-08T13:01:06;101241.25;;;36.48;29.34
64095;BME280;50353;51.420;5.682;2023-07-08T13:03:35;101239.19;;;36.82;26.70
64095;BME280;50353;51.420;5.682;2023-07-08T13:06:02;101241.06;;;36.32;29.03
64095;BME280;50353;51.420;5.682;2023-07-08T13:08:30;101230.16;;;36.87;28.18
64095;BME280;50353;51.420;5.682;2023-07-08T13:10:59;101246.91;;;36.85;29.09
64095;BME280;50353;51.420;5.682;2023-07-08T13:13:35;101251.53;;;37.29;26.52
64095;BME280;50353;51.420;5.682;2023-07-08T13:16:01;101253.13;;;36.98;26.11
64095;BME280;50353;51.420;5.682;2023-07-08T13:18:35;101246.91;;;37.13;25.29
64095;BME280;50353;51.420;5.682;2023-07-08T13:21:03;101244.22;;;36.68;27.47
64095;BME280;50353;51.420;5.682;2023-07-08T13:23:29;101250.53;;;36.64;29.33
64095;BME280;50353;51.420;5.682;2023-07-08T13:25:55;101249.84;;;36.51;28.37
64095;BME280;50353;51.420;5.682;2023-07-08T13:28:26;101244.53;;;36.45;27.25
64095;BME280;50353;51.420;5.682;2023-07-08T13:31:01;101250.63;;;35.74;28.12
64095;BME280;50353;51.420;5.682;2023-07-08T13:33:33;101241.16;;;36.65;28.49